Tessa Kosan — MCRC4 — position and weather

sailwx.info

Track history (hours):
 
Tides and Currents Weather Stations Pressure Air Temp Water Temp Dewpoint Dewpoint Depression Visibility Wind Speed Wind Dir Waves Ship Positions

Tessa Kosan

Last reported at 2018-Feb-24 16:21 UTC. Time now 2018-Feb-24 16:37 UTC.
Position N 51°16' E 004°15'.

Length 112 m; draft 6.7 m.

Type: Ship (hazmat cat C). MMSI: 235006740.

Date/timePositionNaut miles runAvg speedWind from/ knotsBaromVisibWave heightAir tempDewpointWater temp
2018-Feb-24 16:21N 51°16' E 004°15'0 0.0
2018-Feb-24 16:00N 51°16' E 004°15'0 0.0
2018-Feb-24 15:27N 51°16' E 004°15'0 0.0
2018-Feb-24 15:00N 51°16' E 004°15'0 0.0
2018-Feb-24 14:30N 51°16' E 004°15'0 0.0
2018-Feb-24 14:00N 51°16' E 004°15'0 0.0
2018-Feb-24 13:27N 51°16' E 004°15'0 0.0
2018-Feb-24 13:00N 51°16' E 004°15'0 0.0
2018-Feb-24 12:30N 51°16' E 004°15'0 0.0
2018-Feb-24 12:00N 51°16' E 004°15'0 0.0
2018-Feb-24 11:30N 51°16' E 004°15'0 0.0
2018-Feb-24 11:00N 51°16' E 004°15'0 0.0
2018-Feb-24 10:30N 51°16' E 004°15'0 0.0
2018-Feb-24 10:00N 51°16' E 004°15'0 0.0
2018-Feb-24 09:24N 51°16' E 004°15'0 0.0
2018-Feb-24 09:00N 51°16' E 004°15'0 0.0
2018-Feb-24 08:27N 51°16' E 004°15'0 0.0
2018-Feb-24 08:00N 51°16' E 004°15'0 0.0
2018-Feb-24 07:24N 51°16' E 004°15'0 0.0
2018-Feb-24 07:00N 51°16' E 004°15'0 0.0
2018-Feb-24 06:27N 51°16' E 004°15'0 0.0
2018-Feb-24 06:00N 51°16' E 004°15'0 0.0
2018-Feb-24 05:30N 51°16' E 004°15'0 0.0
2018-Feb-24 05:00N 51°16' E 004°15'0 0.0
2018-Feb-24 04:27N 51°16' E 004°15'0 0.0
2018-Feb-24 04:00N 51°16' E 004°15'0 0.0
2018-Feb-24 03:18N 51°16' E 004°15'0 0.0
2018-Feb-24 02:54N 51°16' E 004°15'0 0.0
2018-Feb-24 02:24N 51°16' E 004°15'0 0.0
2018-Feb-24 01:57N 51°16' E 004°15'0 0.0
2018-Feb-24 01:27N 51°16' E 004°15'0 0.0
2018-Feb-24 00:57N 51°16' E 004°15'0 0.0
2018-Feb-24 00:24N 51°16' E 004°15'0 0.0
2018-Feb-23 23:57N 51°16' E 004°15'0 0.0
2018-Feb-23 23:27N 51°16' E 004°15'0 0.0
2018-Feb-23 23:00N 51°16' E 004°15'0 0.0
2018-Feb-23 22:30N 51°16' E 004°15'0 0.0
2018-Feb-23 22:00N 51°16' E 004°15'0 0.0
2018-Feb-23 21:30N 51°16' E 004°15'0 0.0
2018-Feb-23 21:00N 51°16' E 004°15'0 0.0
2018-Feb-23 20:27N 51°16' E 004°15'0 0.0
2018-Feb-23 20:00N 51°16' E 004°15'0 0.0
2018-Feb-23 19:30N 51°16' E 004°15'0 0.0
2018-Feb-23 19:00N 51°16' E 004°15'1 2.1
2018-Feb-23 18:30N 51°16' E 004°17'0 0.0
2018-Feb-23 18:00N 51°16' E 004°17'2 3.0
2018-Feb-23 17:30N 51°17' E 004°19'5 9.6
2018-Feb-23 17:00N 51°21' E 004°16'4 8.5
2018-Feb-23 16:30N 51°23' E 004°10'510.0
2018-Feb-23 16:00N 51°23' E 004°02'3 6.0
2018-Feb-23 15:31N 51°24' E 003°57'612.1
2018-Feb-23 15:00N 51°21' E 003°49'611.2
2018-Feb-23 14:31N 51°25' E 003°42'5 9.7
2018-Feb-23 14:00N 51°25' E 003°35'5 9.2
2018-Feb-23 13:30N 51°25' E 003°27'612.9
2018-Feb-23 13:01N 51°24' E 003°17'611.8
2018-Feb-23 12:31N 51°24' E 003°08'611.5
2018-Feb-23 12:01N 51°23' E 002°59'712.7
2018-Feb-23 11:30N 51°22' E 002°48'4 8.6
2018-Feb-23 11:00N 51°22' E 002°42'510.4
2018-Feb-23 10:30N 51°20' E 002°34'0 0.6
2018-Feb-23 09:55N 51°20' E 002°33'0 0.0
2018-Feb-23 09:25N 51°20' E 002°33'0 0.0
2018-Feb-23 08:58N 51°20' E 002°33'0 0.0
2018-Feb-23 08:28N 51°20' E 002°33'0 0.0
2018-Feb-23 07:58N 51°20' E 002°33'0 0.2
2018-Feb-23 07:22N 51°20' E 002°34'0 0.1
2018-Feb-23 06:49N 51°20' E 002°34'0 0.1
2018-Feb-23 06:25N 51°20' E 002°34'0 0.1
2018-Feb-23 05:43N 51°20' E 002°34'0 0.2
2018-Feb-23 05:28N 51°20' E 002°34'0 0.1
2018-Feb-23 04:55N 51°20' E 002°34'0 0.1
2018-Feb-23 04:28N 51°20' E 002°34'0 0.1
2018-Feb-23 03:58N 51°20' E 002°33'0 0.0
2018-Feb-23 03:28N 51°20' E 002°33'0 0.0
2018-Feb-23 02:58N 51°20' E 002°33'0 0.0
2018-Feb-23 02:28N 51°20' E 002°34'0 0.0
2018-Feb-23 01:58N 51°20' E 002°34'0 0.0
2018-Feb-23 01:19N 51°20' E 002°34'0 0.0
2018-Feb-23 00:58N 51°20' E 002°34'0 0.0
2018-Feb-23 00:28N 51°20' E 002°34'0 0.0
2018-Feb-22 23:58N 51°20' E 002°34'0 0.0
2018-Feb-22 23:25N 51°20' E 002°34'0 0.0
2018-Feb-22 22:58N 51°20' E 002°34'0 0.0
2018-Feb-22 22:28N 51°20' E 002°34'0 0.0
2018-Feb-22 21:58N 51°20' E 002°34'0 0.0
2018-Feb-22 21:28N 51°20' E 002°34'0 0.0
2018-Feb-22 20:58N 51°20' E 002°34'0 0.0
2018-Feb-22 20:28N 51°20' E 002°34'0 0.0
2018-Feb-22 19:58N 51°20' E 002°34'0 0.2
2018-Feb-22 19:29N 51°20' E 002°34'3 5.1
2018-Feb-22 18:58N 51°22' E 002°32'715.1
2018-Feb-22 18:29N 51°19' E 002°21'815.8
2018-Feb-22 18:00N 51°15' E 002°11'816.1
2018-Feb-22 17:30N 51°12' E 001°59'816.5
2018-Feb-22 17:00N 51°07' E 001°49'917.0
2018-Feb-22 16:29N 51°01' E 001°39'917.6
2018-Feb-22 16:00N 50°55' E 001°29'3915.2
2018-Feb-22 13:25N 50°28' E 000°43'1716.2
2018-Feb-22 12:20N 50°23' E 000°17'716.3
2018-Feb-22 11:55N 50°21' E 000°07'6214.8
2018-Feb-22 07:45N 50°05' W 001°26'312.5
2018-Feb-22 07:30N 50°04' W 001°31'612.1
2018-Feb-22 07:00N 50°02' W 001°40'611.5
2018-Feb-22 06:30N 50°01' W 001°49'611.3
2018-Feb-22 06:01N 49°60' W 001°57'2311.8
2018-Feb-22 04:02N 49°54' W 002°32'513.2
2018-Feb-22 03:38N 49°52' W 002°40'1013.6
2018-Feb-22 02:56N 49°49' W 002°54'10214.7
2018-Feb-21 20:00N 48°57' W 005°08'1315.9
2018-Feb-21 19:11N 48°50' W 005°25'515.9
2018-Feb-21 18:51N 48°47' W 005°32'515.6
2018-Feb-21 18:30N 48°43' W 005°38'60313.3
2018-Feb-19 21:05N 39°10' W 009°57'113.4
2018-Feb-19 21:00N 39°09' W 009°57'713.2
2018-Feb-19 20:30N 39°03' W 009°57'713.2
2018-Feb-19 20:00N 38°56' W 009°57'713.2
2018-Feb-19 19:30N 38°50' W 009°57'713.6
2018-Feb-19 19:00N 38°43' W 009°57'714.1
2018-Feb-19 18:30N 38°36' W 009°55'714.0
2018-Feb-19 18:00N 38°29' W 009°53'713.5
2018-Feb-19 17:30N 38°22' W 009°51'713.5
2018-Feb-19 16:59N 38°16' W 009°49'714.0
2018-Feb-19 16:30N 38°09' W 009°48'714.0
2018-Feb-19 16:00N 38°02' W 009°45'714.1
2018-Feb-19 15:30N 37°55' W 009°43'714.2
2018-Feb-19 15:00N 37°49' W 009°41'714.3
2018-Feb-19 14:30N 37°41' W 009°39'714.4
2018-Feb-19 14:01N 37°35' W 009°37'814.3
2018-Feb-19 13:27N 37°27' W 009°35'714.3
2018-Feb-19 12:56N 37°19' W 009°33'614.6
2018-Feb-19 12:30N 37°13' W 009°31'41313.1
2018-Feb-18 04:51N 37°22' W 000°51'715.7
2018-Feb-18 04:24N 37°27' W 000°45'915.3
2018-Feb-18 03:48N 37°33' W 000°36'414.7
2018-Feb-18 03:30N 37°36' W 000°32'714.8
2018-Feb-18 03:00N 37°42' W 000°27'  
2018-Feb-15 20:03N 38°10' E 000°02'115.8
2018-Feb-15 19:59N 38°09' E 000°01'815.8
2018-Feb-15 19:30N 38°03' W 000°05'1016.3
2018-Feb-15 18:55N 37°55' W 000°12'716.5
2018-Feb-15 18:30N 37°50' W 000°17'816.6
2018-Feb-15 18:00N 37°43' W 000°23'816.6
2018-Feb-15 17:30N 37°36' W 000°29'816.1
2018-Feb-15 17:00N 37°30' W 000°36'815.9
2018-Feb-15 16:30N 37°25' W 000°44'815.6
2018-Feb-15 16:00N 37°20' W 000°51'815.6
2018-Feb-15 15:30N 37°15' W 000°58'21915.3
2018-Feb-15 01:11N 36°00' W 005°15'317.7
2018-Feb-15 01:00N 35°59' W 005°19'917.3
2018-Feb-15 00:30N 35°57' W 005°29'  
Track history (hours):
 
Tides and Currents Weather Stations Pressure Air Temp Water Temp Dewpoint Dewpoint Depression Visibility Wind Speed Wind Dir Waves Ship Positions

Tessa Kosan

Last reported at 2018-Feb-24 16:21 UTC. Time now 2018-Feb-24 16:37 UTC.
Position N 51°16' E 004°15'.

Length 112 m; draft 6.7 m.

Type: Ship (hazmat cat C). MMSI: 235006740.

Date/timePositionNaut miles runAvg speedWind from/ knotsBaromVisibWave heightAir tempDewpointWater temp
2018-Feb-24 16:21N 51°16' E 004°15'0 0.0
2018-Feb-24 16:00N 51°16' E 004°15'0 0.0
2018-Feb-24 15:27N 51°16' E 004°15'0 0.0
2018-Feb-24 15:00N 51°16' E 004°15'0 0.0
2018-Feb-24 14:30N 51°16' E 004°15'0 0.0
2018-Feb-24 14:00N 51°16' E 004°15'0 0.0
2018-Feb-24 13:27N 51°16' E 004°15'0 0.0
2018-Feb-24 13:00N 51°16' E 004°15'0 0.0
2018-Feb-24 12:30N 51°16' E 004°15'0 0.0
2018-Feb-24 12:00N 51°16' E 004°15'0 0.0
2018-Feb-24 11:30N 51°16' E 004°15'0 0.0
2018-Feb-24 11:00N 51°16' E 004°15'0 0.0
2018-Feb-24 10:30N 51°16' E 004°15'0 0.0
2018-Feb-24 10:00N 51°16' E 004°15'0 0.0
2018-Feb-24 09:24N 51°16' E 004°15'0 0.0
2018-Feb-24 09:00N 51°16' E 004°15'0 0.0
2018-Feb-24 08:27N 51°16' E 004°15'0 0.0
2018-Feb-24 08:00N 51°16' E 004°15'0 0.0
2018-Feb-24 07:24N 51°16' E 004°15'0 0.0
2018-Feb-24 07:00N 51°16' E 004°15'0 0.0
2018-Feb-24 06:27N 51°16' E 004°15'0 0.0
2018-Feb-24 06:00N 51°16' E 004°15'0 0.0
2018-Feb-24 05:30N 51°16' E 004°15'0 0.0
2018-Feb-24 05:00N 51°16' E 004°15'0 0.0
2018-Feb-24 04:27N 51°16' E 004°15'0 0.0
2018-Feb-24 04:00N 51°16' E 004°15'0 0.0
2018-Feb-24 03:18N 51°16' E 004°15'0 0.0
2018-Feb-24 02:54N 51°16' E 004°15'0 0.0
2018-Feb-24 02:24N 51°16' E 004°15'0 0.0
2018-Feb-24 01:57N 51°16' E 004°15'0 0.0
2018-Feb-24 01:27N 51°16' E 004°15'0 0.0
2018-Feb-24 00:57N 51°16' E 004°15'0 0.0
2018-Feb-24 00:24N 51°16' E 004°15'0 0.0
2018-Feb-23 23:57N 51°16' E 004°15'0 0.0
2018-Feb-23 23:27N 51°16' E 004°15'0 0.0
2018-Feb-23 23:00N 51°16' E 004°15'0 0.0
2018-Feb-23 22:30N 51°16' E 004°15'0 0.0
2018-Feb-23 22:00N 51°16' E 004°15'0 0.0
2018-Feb-23 21:30N 51°16' E 004°15'0 0.0
2018-Feb-23 21:00N 51°16' E 004°15'0 0.0
2018-Feb-23 20:27N 51°16' E 004°15'0 0.0
2018-Feb-23 20:00N 51°16' E 004°15'0 0.0
2018-Feb-23 19:30N 51°16' E 004°15'0 0.0
2018-Feb-23 19:00N 51°16' E 004°15'1 2.1
2018-Feb-23 18:30N 51°16' E 004°17'0 0.0
2018-Feb-23 18:00N 51°16' E 004°17'2 3.0
2018-Feb-23 17:30N 51°17' E 004°19'5 9.6
2018-Feb-23 17:00N 51°21' E 004°16'4 8.5
2018-Feb-23 16:30N 51°23' E 004°10'510.0
2018-Feb-23 16:00N 51°23' E 004°02'3 6.0
2018-Feb-23 15:31N 51°24' E 003°57'612.1
2018-Feb-23 15:00N 51°21' E 003°49'611.2
2018-Feb-23 14:31N 51°25' E 003°42'5 9.7
2018-Feb-23 14:00N 51°25' E 003°35'5 9.2
2018-Feb-23 13:30N 51°25' E 003°27'612.9
2018-Feb-23 13:01N 51°24' E 003°17'611.8
2018-Feb-23 12:31N 51°24' E 003°08'611.5
2018-Feb-23 12:01N 51°23' E 002°59'712.7
2018-Feb-23 11:30N 51°22' E 002°48'4 8.6
2018-Feb-23 11:00N 51°22' E 002°42'510.4
2018-Feb-23 10:30N 51°20' E 002°34'0 0.6
2018-Feb-23 09:55N 51°20' E 002°33'0 0.0
2018-Feb-23 09:25N 51°20' E 002°33'0 0.0
2018-Feb-23 08:58N 51°20' E 002°33'0 0.0
2018-Feb-23 08:28N 51°20' E 002°33'0 0.0
2018-Feb-23 07:58N 51°20' E 002°33'0 0.2
2018-Feb-23 07:22N 51°20' E 002°34'0 0.1
2018-Feb-23 06:49N 51°20' E 002°34'0 0.1
2018-Feb-23 06:25N 51°20' E 002°34'0 0.1
2018-Feb-23 05:43N 51°20' E 002°34'0 0.2
2018-Feb-23 05:28N 51°20' E 002°34'0 0.1
2018-Feb-23 04:55N 51°20' E 002°34'0 0.1
2018-Feb-23 04:28N 51°20' E 002°34'0 0.1
2018-Feb-23 03:58N 51°20' E 002°33'0 0.0
2018-Feb-23 03:28N 51°20' E 002°33'0 0.0
2018-Feb-23 02:58N 51°20' E 002°33'0 0.0
2018-Feb-23 02:28N 51°20' E 002°34'0 0.0
2018-Feb-23 01:58N 51°20' E 002°34'0 0.0
2018-Feb-23 01:19N 51°20' E 002°34'0 0.0
2018-Feb-23 00:58N 51°20' E 002°34'0 0.0
2018-Feb-23 00:28N 51°20' E 002°34'0 0.0
2018-Feb-22 23:58N 51°20' E 002°34'0 0.0
2018-Feb-22 23:25N 51°20' E 002°34'0 0.0
2018-Feb-22 22:58N 51°20' E 002°34'0 0.0
2018-Feb-22 22:28N 51°20' E 002°34'0 0.0
2018-Feb-22 21:58N 51°20' E 002°34'0 0.0
2018-Feb-22 21:28N 51°20' E 002°34'0 0.0
2018-Feb-22 20:58N 51°20' E 002°34'0 0.0
2018-Feb-22 20:28N 51°20' E 002°34'0 0.0
2018-Feb-22 19:58N 51°20' E 002°34'0 0.2
2018-Feb-22 19:29N 51°20' E 002°34'3 5.1
2018-Feb-22 18:58N 51°22' E 002°32'715.1
2018-Feb-22 18:29N 51°19' E 002°21'815.8
2018-Feb-22 18:00N 51°15' E 002°11'816.1
2018-Feb-22 17:30N 51°12' E 001°59'816.5
2018-Feb-22 17:00N 51°07' E 001°49'917.0
2018-Feb-22 16:29N 51°01' E 001°39'917.6
2018-Feb-22 16:00N 50°55' E 001°29'3915.2
2018-Feb-22 13:25N 50°28' E 000°43'1716.2
2018-Feb-22 12:20N 50°23' E 000°17'716.3
2018-Feb-22 11:55N 50°21' E 000°07'6214.8
2018-Feb-22 07:45N 50°05' W 001°26'312.5
2018-Feb-22 07:30N 50°04' W 001°31'612.1
2018-Feb-22 07:00N 50°02' W 001°40'611.5
2018-Feb-22 06:30N 50°01' W 001°49'611.3
2018-Feb-22 06:01N 49°60' W 001°57'2311.8
2018-Feb-22 04:02N 49°54' W 002°32'513.2
2018-Feb-22 03:38N 49°52' W 002°40'1013.6
2018-Feb-22 02:56N 49°49' W 002°54'10214.7
2018-Feb-21 20:00N 48°57' W 005°08'1315.9
2018-Feb-21 19:11N 48°50' W 005°25'515.9
2018-Feb-21 18:51N 48°47' W 005°32'515.6
2018-Feb-21 18:30N 48°43' W 005°38'60313.3
2018-Feb-19 21:05N 39°10' W 009°57'113.4
2018-Feb-19 21:00N 39°09' W 009°57'713.2
2018-Feb-19 20:30N 39°03' W 009°57'713.2
2018-Feb-19 20:00N 38°56' W 009°57'713.2
2018-Feb-19 19:30N 38°50' W 009°57'713.6
2018-Feb-19 19:00N 38°43' W 009°57'714.1
2018-Feb-19 18:30N 38°36' W 009°55'714.0
2018-Feb-19 18:00N 38°29' W 009°53'713.5
2018-Feb-19 17:30N 38°22' W 009°51'713.5
2018-Feb-19 16:59N 38°16' W 009°49'714.0
2018-Feb-19 16:30N 38°09' W 009°48'714.0
2018-Feb-19 16:00N 38°02' W 009°45'714.1
2018-Feb-19 15:30N 37°55' W 009°43'714.2
2018-Feb-19 15:00N 37°49' W 009°41'714.3
2018-Feb-19 14:30N 37°41' W 009°39'714.4
2018-Feb-19 14:01N 37°35' W 009°37'814.3
2018-Feb-19 13:27N 37°27' W 009°35'714.3
2018-Feb-19 12:56N 37°19' W 009°33'614.6
2018-Feb-19 12:30N 37°13' W 009°31'41313.1
2018-Feb-18 04:51N 37°22' W 000°51'715.7
2018-Feb-18 04:24N 37°27' W 000°45'915.3
2018-Feb-18 03:48N 37°33' W 000°36'414.7
2018-Feb-18 03:30N 37°36' W 000°32'714.8
2018-Feb-18 03:00N 37°42' W 000°27'  
2018-Feb-15 20:03N 38°10' E 000°02'115.8
2018-Feb-15 19:59N 38°09' E 000°01'815.8
2018-Feb-15 19:30N 38°03' W 000°05'1016.3
2018-Feb-15 18:55N 37°55' W 000°12'716.5
2018-Feb-15 18:30N 37°50' W 000°17'816.6
2018-Feb-15 18:00N 37°43' W 000°23'816.6
2018-Feb-15 17:30N 37°36' W 000°29'816.1
2018-Feb-15 17:00N 37°30' W 000°36'815.9
2018-Feb-15 16:30N 37°25' W 000°44'815.6
2018-Feb-15 16:00N 37°20' W 000°51'815.6
2018-Feb-15 15:30N 37°15' W 000°58'21915.3
2018-Feb-15 01:11N 36°00' W 005°15'317.7
2018-Feb-15 01:00N 35°59' W 005°19'917.3
2018-Feb-15 00:30N 35°57' W 005°29'  

Dump ship's entire track history